Time;durP1;ratioP1;P1;durP2;ratioP2;P2;SDS_P1;SDS_P2;PMS_P1;PMS_P2;Temp;Humidity;BMP_temperature;BMP_pressure;BME280_temperature;BME280_humidity;BME280_pressure;Samples;Min_cycle;Max_cycle;Signal;HPM_P1;HPM_P2
2024/01/11 00:00:42;;;;;;;16.48;10.25;;;13.90;76.70;;;;;;6247470;23;20034;-82
2024/01/11 00:03:11;;;;;;;15.13;9.93;;;13.90;76.80;;;;;;6239044;23;20039;-82
2024/01/11 00:05:36;;;;;;;12.90;9.30;;;13.90;76.80;;;;;;6192799;23;20012;-82
2024/01/11 00:08:02;;;;;;;13.40;10.02;;;13.90;76.80;;;;;;6219013;23;20092;-83
2024/01/11 00:10:28;;;;;;;13.80;9.85;;;13.90;76.80;;;;;;6219031;23;20050;-82
2024/01/11 00:12:54;;;;;;;14.73;10.30;;;13.90;76.80;;;;;;6218965;23;20000;-82
2024/01/11 00:15:19;;;;;;;14.40;9.68;;;13.90;76.70;;;;;;6217791;23;20430;-81
2024/01/11 00:17:50;;;;;;;13.73;9.35;;;13.90;76.80;;;;;;6245635;23;20007;-82
2024/01/11 00:20:16;;;;;;;14.30;9.80;;;13.90;76.70;;;;;;6217441;23;20004;-82
2024/01/11 00:22:44;;;;;;;13.90;9.15;;;13.90;76.70;;;;;;6218543;23;20016;-82
2024/01/11 00:25:13;;;;;;;12.88;9.30;;;13.90;76.80;;;;;;6220229;23;20008;-82
2024/01/11 00:27:40;;;;;;;13.40;9.43;;;13.90;76.80;;;;;;6218063;23;20011;-82
2024/01/11 00:30:13;;;;;;;13.70;9.68;;;13.90;76.80;;;;;;6245253;23;20001;-82
2024/01/11 00:32:41;;;;;;;13.32;9.60;;;13.90;76.80;;;;;;6244866;23;20008;-83
2024/01/11 00:35:07;;;;;;;13.98;9.57;;;13.90;76.80;;;;;;6245298;23;20328;-82
2024/01/11 00:37:33;;;;;;;12.18;9.07;;;13.90;76.70;;;;;;6218381;23;20008;-82
2024/01/11 00:40:00;;;;;;;14.73;10.27;;;13.80;76.70;;;;;;6193149;23;20146;-82
2024/01/11 00:42:50;;;;;;;13.75;9.57;;;13.90;76.80;;;;;;6218157;23;20011;-82
2024/01/11 00:45:19;;;;;;;13.30;9.77;;;13.90;76.80;;;;;;6246114;23;20000;-82
2024/01/11 00:47:54;;;;;;;14.52;9.75;;;13.80;76.70;;;;;;6193557;23;20004;-82
2024/01/11 00:50:45;;;;;;;14.80;10.75;;;13.90;76.80;;;;;;6244135;23;20079;-82
2024/01/11 00:53:30;;;;;;;14.20;10.10;;;13.80;76.80;;;;;;6245331;23;20722;-81
2024/01/11 00:56:03;;;;;;;12.68;8.85;;;13.80;76.70;;;;;;6204804;23;20024;-82
2024/01/11 00:59:03;;;;;;;13.88;9.70;;;13.80;76.70;;;;;;6242304;23;20071;-81
2024/01/11 01:08:04;;;;;;;14.63;10.00;;;13.90;76.80;;;;;;6250763;23;20027;-83
2024/01/11 01:10:34;;;;;;;13.02;9.68;;;13.90;76.80;;;;;;6222235;23;20015;-82
2024/01/11 01:13:55;;;;;;;13.95;9.70;;;13.80;76.70;;;;;;6194801;23;20040;-82
2024/01/11 01:16:55;;;;;;;13.95;9.98;;;13.80;76.70;;;;;;6178345;23;19997;-83
2024/01/11 01:19:40;;;;;;;14.00;10.00;;;13.90;76.60;;;;;;6229854;23;20004;-82
2024/01/11 01:22:11;;;;;;;13.75;9.57;;;13.80;76.60;;;;;;6217322;23;20012;-82
2024/01/11 01:24:46;;;;;;;13.10;9.57;;;13.80;76.70;;;;;;6246301;23;20327;-82
2024/01/11 01:27:22;;;;;;;13.45;9.32;;;13.80;76.60;;;;;;6219318;23;20008;-83
2024/01/11 01:30:06;;;;;;;12.55;9.13;;;13.80;76.60;;;;;;6242534;23;20000;-82
2024/01/11 01:35:39;;;;;;;13.05;9.35;;;13.80;76.50;;;;;;6248278;23;19952;-82
2024/01/11 01:38:21;;;;;;;13.32;9.98;;;13.80;76.50;;;;;;6218975;23;20036;-82
2024/01/11 01:48:13;;;;;;;13.57;9.48;;;13.80;76.60;;;;;;6250156;23;20050;-82
2024/01/11 01:54:11;;;;;;;14.23;10.25;;;13.80;76.60;;;;;;6233261;23;20062;-82
2024/01/11 01:57:15;;;;;;;13.95;9.82;;;13.80;76.60;;;;;;6182607;23;20004;-82
2024/01/11 02:05:57;;;;;;;13.68;9.20;;;13.80;76.60;;;;;;6239219;23;20465;-82
2024/01/11 02:12:10;;;;;;;12.20;8.90;;;13.80;76.60;;;;;;6253567;23;20019;-82
2024/01/11 02:14:56;;;;;;;16.50;10.32;;;13.80;76.50;;;;;;6218833;23;20000;-82
2024/01/11 02:28:12;;;;;;;13.40;9.48;;;13.70;76.50;;;;;;6256921;23;20020;-82
2024/01/11 02:31:34;;;;;;;13.93;9.45;;;13.70;76.50;;;;;;6200299;23;20011;-83
2024/01/11 02:35:01;;;;;;;13.18;9.45;;;13.70;76.60;;;;;;6246296;23;20032;-81
2024/01/11 02:58:24;;;;;;;14.27;9.93;;;13.70;76.50;;;;;;6259633;23;20049;-82
2024/01/11 03:28:31;;;;;;;12.40;9.45;;;13.70;76.40;;;;;;6261158;23;20079;-81
2024/01/11 03:35:15;;;;;;;13.77;9.88;;;13.70;76.40;;;;;;6261104;23;20061;-81
2024/01/11 03:38:07;;;;;;;13.63;9.40;;;13.70;76.50;;;;;;6192535;23;20005;-82
2024/01/11 03:51:22;;;;;;;12.45;9.40;;;13.70;76.40;;;;;;6134316;23;20017;-81
2024/01/11 04:07:53;;;;;;;13.35;9.27;;;13.60;76.50;;;;;;6052002;23;20050;-81
2024/01/11 04:26:58;;;;;;;13.88;9.75;;;13.60;76.40;;;;;;6054716;23;20627;-81
2024/01/11 04:30:02;;;;;;;13.90;9.95;;;13.60;76.40;;;;;;6017532;23;20021;-82
2024/01/11 04:33:27;;;;;;;12.57;9.07;;;13.60;76.40;;;;;;6058154;23;20037;-83
2024/01/11 04:43:35;;;;;;;13.23;9.52;;;13.60;76.40;;;;;;6144266;23;20005;-81
2024/01/11 04:57:02;;;;;;;12.05;8.75;;;13.50;76.40;;;;;;6163152;23;20036;-82
2024/01/11 05:10:05;;;;;;;13.02;9.23;;;13.50;76.20;;;;;;6260821;23;20103;-82
2024/01/11 05:20:12;;;;;;;12.38;8.77;;;13.50;76.90;;;;;;6164194;23;20075;-81
2024/01/11 05:40:33;;;;;;;12.35;9.25;;;13.40;76.20;;;;;;6165724;23;20021;-81
2024/01/11 05:50:57;;;;;;;12.88;9.48;;;13.40;76.40;;;;;;6144603;23;20052;-80
2024/01/11 05:57:29;;;;;;;13.10;9.20;;;13.40;76.40;;;;;;6265925;22;20034;-83
2024/01/11 06:04:10;;;;;;;12.73;9.38;;;13.40;76.30;;;;;;6259708;23;20023;-80
2024/01/11 06:25:47;;;;;;;12.23;9.07;;;13.30;76.30;;;;;;6213580;23;20024;-81
2024/01/11 06:31:26;;;;;;;14.40;10.20;;;13.40;76.50;;;;;;6216279;23;20338;-81
2024/01/11 06:34:18;;;;;;;12.63;9.05;;;13.30;76.40;;;;;;6217106;23;20110;-81
2024/01/11 06:39:57;;;;;;;13.85;9.85;;;13.30;76.10;;;;;;6224047;23;20027;-80
2024/01/11 06:42:23;;;;;;;12.88;9.15;;;13.30;76.40;;;;;;6197945;23;20009;-81
2024/01/11 06:44:58;;;;;;;14.68;9.98;;;13.30;76.30;;;;;;6222025;23;20008;-81
2024/01/11 06:55:06;;;;;;;13.38;9.60;;;13.30;76.40;;;;;;6135237;23;19996;-81
2024/01/11 09:00:57;;;;;;;19.67;11.50;;;13.50;74.50;;;;;;6180125;23;20035;-85
2024/01/11 09:12:02;;;;;;;16.48;10.88;;;13.50;74.50;;;;;;6210504;23;20025;-86
2024/01/11 09:14:31;;;;;;;18.40;10.73;;;13.50;74.50;;;;;;6158056;23;20017;-83
2024/01/11 09:17:16;;;;;;;17.08;10.25;;;13.50;74.50;;;;;;6195839;23;20008;-85
2024/01/11 09:19:44;;;;;;;18.63;11.70;;;13.80;74.70;;;;;;6195710;23;20005;-84
2024/01/11 09:22:10;;;;;;;17.80;11.02;;;13.60;74.60;;;;;;6193785;23;20338;-84
2024/01/11 09:24:41;;;;;;;20.10;10.73;;;13.50;74.50;;;;;;6192982;23;20012;-84
2024/01/11 09:27:11;;;;;;;17.20;10.68;;;13.60;74.60;;;;;;6191139;23;20028;-85
2024/01/11 09:29:45;;;;;;;16.27;10.48;;;13.60;74.60;;;;;;6189839;23;20074;-82
2024/01/11 09:32:11;;;;;;;16.23;10.63;;;13.50;74.50;;;;;;6188812;23;20032;-85
2024/01/11 09:34:37;;;;;;;16.63;10.45;;;13.60;74.50;;;;;;6189277;23;20143;-83
2024/01/11 09:37:03;;;;;;;18.58;10.45;;;13.60;74.50;;;;;;6188639;23;20004;-84
2024/01/11 09:39:29;;;;;;;18.42;11.15;;;13.60;74.40;;;;;;6188527;23;20062;-84
2024/01/11 09:42:01;;;;;;;15.13;10.40;;;13.70;74.40;;;;;;6188390;23;20008;-85
2024/01/11 09:44:28;;;;;;;16.58;10.55;;;13.70;74.40;;;;;;6188282;23;20063;-84
2024/01/11 09:46:54;;;;;;;16.50;10.65;;;13.70;74.20;;;;;;6189343;23;20009;-85
2024/01/11 09:49:23;;;;;;;16.70;10.55;;;13.80;74.50;;;;;;6188276;23;20139;-84
2024/01/11 09:51:49;;;;;;;15.68;10.30;;;13.70;74.20;;;;;;6188589;23;20009;-85
2024/01/11 09:54:15;;;;;;;16.35;10.15;;;13.70;74.10;;;;;;6189520;23;20005;-84
2024/01/11 09:56:42;;;;;;;15.27;10.43;;;13.80;74.20;;;;;;6187881;23;20001;-83
2024/01/11 09:59:09;;;;;;;19.23;10.25;;;13.70;74.20;;;;;;6188407;23;20009;-85
2024/01/11 10:01:35;;;;;;;15.93;9.75;;;13.70;74.20;;;;;;6189792;23;20643;-85
2024/01/11 10:04:03;;;;;;;16.25;10.25;;;13.70;74.30;;;;;;6188938;23;20015;-84
2024/01/11 10:06:33;;;;;;;14.82;9.60;;;13.70;74.30;;;;;;6190598;23;20103;-84
2024/01/11 10:09:00;;;;;;;14.95;9.88;;;13.60;74.40;;;;;;6189464;23;20111;-82
2024/01/11 10:11:26;;;;;;;14.75;9.95;;;13.60;74.40;;;;;;6191583;23;20415;-83
2024/01/11 10:14:00;;;;;;;14.75;9.68;;;13.60;74.40;;;;;;6190379;23;20080;-83
2024/01/11 10:16:31;;;;;;;15.65;10.32;;;13.50;74.30;;;;;;6188774;23;20020;-83
2024/01/11 10:19:03;;;;;;;13.97;9.50;;;13.60;74.50;;;;;;6189715;23;20435;-82
2024/01/11 10:21:30;;;;;;;15.32;9.43;;;13.60;74.50;;;;;;6189097;23;20027;-84
2024/01/11 10:24:55;;;;;;;16.63;10.65;;;13.60;74.60;;;;;;6189044;23;20008;-83
2024/01/11 10:27:25;;;;;;;14.55;10.05;;;13.60;74.60;;;;;;6188410;23;20008;-83
2024/01/11 10:29:53;;;;;;;15.50;10.27;;;13.60;74.80;;;;;;6191043;23;20004;-84
2024/01/11 10:32:18;;;;;;;14.63;9.63;;;13.60;74.70;;;;;;6193192;23;20016;-82
2024/01/11 10:34:44;;;;;;;15.27;9.95;;;13.60;74.60;;;;;;6190156;23;20389;-82
2024/01/11 10:37:10;;;;;;;13.07;9.30;;;13.60;74.60;;;;;;6189662;23;20004;-83
2024/01/11 10:40:13;;;;;;;;;;;;;;;;;;;;;
2024/01/11 10:42:45;;;;;;;14.45;9.18;;;13.50;74.50;;;;;;6217369;23;20087;-82
2024/01/11 10:45:16;;;;;;;12.93;9.60;;;13.60;74.70;;;;;;6191496;23;20009;-83
2024/01/11 10:51:16;;;;;;;13.85;9.35;;;13.50;74.70;;;;;;6206915;23;20024;-83
2024/01/11 10:53:47;;;;;;;15.43;9.05;;;13.60;74.70;;;;;;6193895;23;20008;-83
2024/01/11 10:56:21;;;;;;;16.15;9.15;;;13.60;74.70;;;;;;6219133;23;19996;-83
2024/01/11 10:59:03;;;;;;;13.80;10.30;;;13.60;74.70;;;;;;6191830;23;20005;-81
2024/01/11 11:01:47;;;;;;;;;;;;;;;;;;;;;
2024/01/11 11:07:21;;;;;;;12.80;8.70;;;13.60;74.80;;;;;;6223930;23;20047;-84
2024/01/11 11:09:57;;;;;;;14.00;9.00;;;13.60;74.80;;;;;;6190681;23;20111;-83
2024/01/11 11:12:30;;;;;;;13.40;9.38;;;13.60;74.70;;;;;;6190651;23;20005;-84
2024/01/11 11:15:15;;;;;;;12.90;9.10;;;13.60;74.70;;;;;;6190711;23;20008;-83
2024/01/11 11:18:35;;;;;;;12.23;8.77;;;13.60;74.80;;;;;;6190350;23;20036;-83
2024/01/11 11:21:24;;;;;;;14.50;9.40;;;13.60;74.70;;;;;;6189606;23;20001;-82
2024/01/11 11:23:50;;;;;;;13.57;8.97;;;13.70;74.90;;;;;;6189621;23;20000;-83
2024/01/11 11:27:13;;;;;;;12.73;8.73;;;13.60;74.90;;;;;;6188521;23;20039;-83
2024/01/11 11:29:39;;;;;;;14.55;8.70;;;13.60;74.80;;;;;;6191655;23;20004;-83
2024/01/11 11:32:10;;;;;;;12.25;8.50;;;13.70;75.00;;;;;;6189042;23;20481;-83
2024/01/11 11:35:27;;;;;;;12.95;8.65;;;13.60;74.90;;;;;;6190377;23;20054;-81
2024/01/11 11:38:59;;;;;;;;;;;;;;;;;;;;;
2024/01/11 11:45:33;;;;;;;12.68;8.55;;;13.60;74.90;;;;;;6149162;23;20092;-84
2024/01/11 11:48:49;;;;;;;19.70;9.48;;;13.60;74.10;;;;;;6188312;23;20058;-81
2024/01/11 11:51:57;;;;;;;;;;;;;;;;;;;;;
2024/01/11 11:55:05;;;;;;;15.45;9.30;;;13.60;73.90;;;;;;6193240;23;20036;-80
2024/01/11 11:58:07;;;;;;;16.40;9.07;;;13.60;73.80;;;;;;6186709;23;20009;-81
2024/01/11 12:04:42;;;;;;;18.45;9.98;;;13.60;73.60;;;;;;6214438;23;20063;-81
2024/01/11 12:07:47;;;;;;;19.13;9.95;;;13.60;73.70;;;;;;6145486;23;20009;-82
2024/01/11 12:11:15;;;;;;;16.70;9.50;;;13.50;73.70;;;;;;6188046;23;20013;-80
2024/01/11 12:14:04;;;;;;;17.40;8.90;;;13.60;73.90;;;;;;6170520;23;20012;-82
2024/01/11 12:16:29;;;;;;;16.48;9.85;;;13.50;74.00;;;;;;6187700;23;20004;-82
2024/01/11 12:22:20;;;;;;;19.23;9.57;;;13.50;74.10;;;;;;6215308;23;20095;-82
2024/01/11 12:24:51;;;;;;;13.00;8.38;;;13.60;74.10;;;;;;6187895;23;20063;-82
2024/01/11 13:00:00;;;;;;;12.23;8.32;;;13.60;74.60;;;;;;6213188;23;20013;-81
2024/01/11 13:03:20;;;;;;;12.95;8.00;;;13.60;74.60;;;;;;6000189;23;20354;-81
2024/01/11 13:06:31;;;;;;;13.00;8.20;;;13.60;74.60;;;;;;6166017;23;20352;-80
2024/01/11 13:32:24;;;;;;;;;;;;;;;;;;;;;
2024/01/11 13:41:45;;;;;;;12.10;7.78;;;13.60;74.70;;;;;;6224284;23;20051;-83
2024/01/11 13:44:22;;;;;;;12.98;7.45;;;13.70;74.90;;;;;;6190343;23;20000;-82
2024/01/11 13:46:48;;;;;;;11.25;7.38;;;13.60;74.80;;;;;;6188847;23;20428;-81
2024/01/11 13:49:16;;;;;;;10.85;7.15;;;13.60;74.70;;;;;;6188304;23;20011;-84
2024/01/11 13:52:00;;;;;;;11.60;7.17;;;13.60;74.70;;;;;;6215115;23;20363;-82
2024/01/11 13:54:26;;;;;;;11.32;7.53;;;13.60;74.80;;;;;;6188011;23;20005;-82
2024/01/11 13:56:52;;;;;;;11.70;7.38;;;13.60;74.90;;;;;;6187743;23;20007;-81
2024/01/11 13:59:18;;;;;;;13.02;7.88;;;13.60;74.80;;;;;;6187766;23;20728;-80
2024/01/11 14:01:43;;;;;;;11.68;7.68;;;13.70;75.00;;;;;;6187548;23;20013;-79
2024/01/11 14:04:08;;;;;;;12.13;7.72;;;13.60;74.90;;;;;;6187567;23;20043;-81
2024/01/11 14:06:34;;;;;;;12.90;7.20;;;13.60;74.80;;;;;;6188094;23;20450;-80
2024/01/11 14:08:59;;;;;;;11.75;7.60;;;13.60;74.80;;;;;;6187783;23;20001;-78
2024/01/11 14:11:25;;;;;;;12.32;6.72;;;13.60;74.70;;;;;;6214460;23;20001;-81
2024/01/11 14:13:50;;;;;;;11.75;7.00;;;13.60;74.70;;;;;;6187729;23;20008;-78
2024/01/11 14:16:16;;;;;;;11.40;6.63;;;13.60;74.80;;;;;;6186891;23;20435;-81
2024/01/11 14:18:42;;;;;;;11.18;6.88;;;13.60;74.90;;;;;;6187768;23;20017;-82
2024/01/11 14:21:11;;;;;;;11.60;7.57;;;13.60;74.80;;;;;;6187809;23;20005;-79
2024/01/11 14:23:37;;;;;;;12.38;7.13;;;13.60;74.80;;;;;;6187478;23;20004;-79
2024/01/11 14:26:02;;;;;;;12.30;7.43;;;13.60;74.80;;;;;;6187586;23;20001;-81
2024/01/11 14:28:28;;;;;;;11.98;6.95;;;13.60;74.80;;;;;;6187593;23;20681;-79
2024/01/11 14:30:53;;;;;;;12.00;7.57;;;13.60;74.80;;;;;;6187667;23;20000;-80
2024/01/11 14:33:19;;;;;;;11.10;7.35;;;13.70;74.90;;;;;;6187724;23;20036;-81
2024/01/11 14:35:45;;;;;;;10.90;6.93;;;13.60;74.80;;;;;;6187320;23;20016;-80
2024/01/11 14:38:10;;;;;;;11.23;6.43;;;13.60;74.80;;;;;;6214050;23;20343;-80
2024/01/11 14:40:36;;;;;;;10.95;6.90;;;13.60;74.80;;;;;;6187754;23;20032;-80
2024/01/11 14:43:01;;;;;;;12.73;7.65;;;13.60;74.90;;;;;;6187588;23;20062;-80
2024/01/11 14:45:27;;;;;;;10.75;6.78;;;13.70;74.90;;;;;;6187712;23;20005;-81
2024/01/11 14:47:52;;;;;;;11.10;7.00;;;13.60;74.80;;;;;;6187420;23;20011;-80
2024/01/11 14:50:19;;;;;;;9.80;5.95;;;13.70;74.80;;;;;;6188285;23;20021;-80
2024/01/11 14:52:45;;;;;;;10.52;6.18;;;13.70;74.90;;;;;;6189644;23;20083;-79
2024/01/11 14:55:10;;;;;;;10.15;6.55;;;13.60;74.90;;;;;;6189785;23;20383;-81
2024/01/11 14:57:36;;;;;;;11.13;6.65;;;13.60;74.90;;;;;;6215827;23;20001;-81
2024/01/11 15:00:02;;;;;;;10.85;6.45;;;13.70;74.90;;;;;;6189629;23;20087;-80
2024/01/11 15:02:28;;;;;;;10.63;6.50;;;13.70;74.80;;;;;;6189433;23;20086;-81
2024/01/11 15:04:53;;;;;;;10.75;6.43;;;13.70;74.90;;;;;;6185886;23;20055;-80
2024/01/11 15:07:19;;;;;;;10.27;6.43;;;13.70;74.90;;;;;;6189157;23;20000;-80
2024/01/11 15:09:44;;;;;;;10.95;6.57;;;13.70;74.90;;;;;;6189541;23;20004;-80
2024/01/11 15:12:10;;;;;;;10.02;6.43;;;13.60;74.90;;;;;;6216164;23;20072;-80
2024/01/11 15:14:35;;;;;;;10.35;6.10;;;13.60;75.00;;;;;;6189383;23;20095;-81
2024/01/11 15:17:02;;;;;;;11.45;6.45;;;13.60;74.90;;;;;;6215250;23;20012;-81
2024/01/11 15:19:27;;;;;;;10.02;6.40;;;13.60;74.90;;;;;;6189408;23;20088;-80
2024/01/11 15:21:53;;;;;;;9.68;6.10;;;13.70;74.90;;;;;;6189196;23;20090;-81
2024/01/11 15:24:21;;;;;;;9.73;5.93;;;13.70;74.90;;;;;;6189535;23;20095;-81
2024/01/11 15:26:48;;;;;;;9.50;6.22;;;13.60;74.90;;;;;;6215992;23;20000;-81
2024/01/11 15:29:14;;;;;;;9.82;6.18;;;13.70;75.00;;;;;;6189083;23;20063;-80
2024/01/11 15:31:41;;;;;;;9.30;5.80;;;13.70;74.90;;;;;;6189093;23;20473;-81
2024/01/11 15:34:07;;;;;;;9.10;6.03;;;13.70;74.90;;;;;;6189548;23;20004;-82
2024/01/11 15:39:25;;;;;;;8.73;5.38;;;13.60;74.90;;;;;;6191416;23;20015;-81
2024/01/11 15:41:56;;;;;;;9.65;5.95;;;13.60;75.00;;;;;;6189281;23;20005;-82
2024/01/11 15:45:14;;;;;;;9.32;6.20;;;13.60;75.00;;;;;;6189486;23;20007;-81
2024/01/11 15:51:25;;;;;;;9.15;5.68;;;13.60;75.00;;;;;;6171643;23;20059;-81
2024/01/11 15:54:37;;;;;;;9.07;5.85;;;13.60;75.00;;;;;;6209053;23;20386;-81
2024/01/11 16:23:44;;;;;;;13.10;5.80;;;13.60;74.20;;;;;;6219139;23;20023;-82
2024/01/11 16:26:52;;;;;;;10.90;5.30;;;13.60;74.60;;;;;;6206890;23;20013;-82
2024/01/11 16:29:26;;;;;;;11.55;5.22;;;13.60;74.60;;;;;;6215667;23;20379;-79
2024/01/11 16:31:54;;;;;;;12.38;5.43;;;13.50;74.20;;;;;;6215643;23;20004;-83
2024/01/11 16:34:19;;;;;;;9.90;5.05;;;13.60;74.20;;;;;;6215548;23;20054;-81
2024/01/11 16:36:45;;;;;;;10.52;5.25;;;13.60;74.00;;;;;;6189059;23;20079;-81
2024/01/11 16:39:11;;;;;;;11.02;6.30;;;13.50;74.10;;;;;;6189330;23;20004;-81
2024/01/11 16:41:37;;;;;;;10.02;5.65;;;13.60;74.10;;;;;;6189449;23;20447;-79
2024/01/11 16:44:07;;;;;;;13.57;5.80;;;13.60;74.30;;;;;;6188886;23;20008;-79
2024/01/11 16:46:32;;;;;;;11.55;5.25;;;13.60;74.40;;;;;;6188492;23;20086;-81
2024/01/11 16:49:01;;;;;;;12.07;5.35;;;13.60;74.40;;;;;;6189044;23;20038;-81
2024/01/11 16:51:28;;;;;;;11.98;5.07;;;13.60;74.40;;;;;;6188823;23;20055;-82
2024/01/11 16:53:54;;;;;;;10.88;5.35;;;13.60;74.50;;;;;;6164242;23;20451;-79
2024/01/11 16:56:19;;;;;;;10.52;5.05;;;13.60;74.50;;;;;;6189194;23;19997;-81
2024/01/11 16:58:46;;;;;;;8.93;5.03;;;13.60;74.60;;;;;;6189521;23;20447;-83
2024/01/11 17:01:12;;;;;;;10.85;5.60;;;13.60;74.50;;;;;;6186609;23;20008;-80
2024/01/11 17:03:38;;;;;;;10.55;5.20;;;13.60;74.50;;;;;;6188408;23;20431;-81
2024/01/11 17:06:05;;;;;;;10.13;5.07;;;13.60;74.50;;;;;;6188140;23;20301;-80
2024/01/11 17:08:31;;;;;;;9.35;4.80;;;13.60;74.50;;;;;;6214635;23;20059;-80
2024/01/11 17:10:57;;;;;;;9.65;5.13;;;13.60;74.50;;;;;;6188469;23;20008;-81
2024/01/11 17:13:22;;;;;;;10.77;5.60;;;13.60;74.60;;;;;;6188333;23;20334;-80
2024/01/11 17:15:48;;;;;;;7.85;4.40;;;13.60;74.70;;;;;;6187708;23;20009;-80
2024/01/11 17:18:14;;;;;;;8.38;4.70;;;13.60;74.80;;;;;;6188579;23;20364;-80
2024/01/11 17:20:40;;;;;;;11.13;5.03;;;13.60;75.20;;;;;;6189695;23;20005;-81
2024/01/11 17:23:06;;;;;;;10.25;5.18;;;13.60;74.70;;;;;;6189516;23;20008;-82
2024/01/11 17:25:32;;;;;;;10.90;4.90;;;13.70;74.70;;;;;;6190871;23;20028;-82
2024/01/11 17:27:57;;;;;;;7.95;4.63;;;13.60;74.70;;;;;;6190407;23;20023;-80
2024/01/11 17:30:23;;;;;;;8.45;4.80;;;13.60;74.80;;;;;;6190050;23;20020;-80
2024/01/11 17:32:49;;;;;;;8.95;4.70;;;13.50;74.70;;;;;;6189521;23;20008;-80
2024/01/11 17:35:14;;;;;;;9.20;4.88;;;13.60;74.60;;;;;;6190166;23;20064;-80
2024/01/11 17:37:40;;;;;;;8.50;4.88;;;13.70;74.70;;;;;;6189600;23;20020;-80
2024/01/11 17:40:07;;;;;;;8.57;4.85;;;13.60;74.70;;;;;;6190616;23;20000;-81
2024/01/11 17:42:32;;;;;;;7.43;4.38;;;13.60;74.70;;;;;;6189058;23;20512;-80
2024/01/11 17:44:58;;;;;;;7.72;4.40;;;13.60;74.80;;;;;;6188975;23;20032;-81
2024/01/11 17:47:38;;;;;;;8.43;4.78;;;13.60;74.80;;;;;;6190402;23;20005;-82
2024/01/11 17:50:11;;;;;;;9.55;4.80;;;13.60;74.70;;;;;;6214591;23;20447;-79
2024/01/11 17:52:37;;;;;;;9.43;4.70;;;13.60;74.70;;;;;;6188975;23;20075;-81
2024/01/11 17:55:03;;;;;;;8.60;4.72;;;13.60;74.70;;;;;;6190124;23;20007;-80
2024/01/11 17:57:29;;;;;;;9.23;4.65;;;13.60;74.70;;;;;;6190234;23;20001;-81
2024/01/11 17:59:55;;;;;;;8.43;4.60;;;13.60;74.70;;;;;;6188030;23;20222;-80
2024/01/11 18:02:20;;;;;;;8.25;4.45;;;13.60;74.70;;;;;;6187810;23;20083;-79
2024/01/11 18:04:46;;;;;;;8.73;4.28;;;13.60;74.70;;;;;;6187207;23;20004;-81
2024/01/11 18:07:11;;;;;;;10.02;4.82;;;13.60;74.70;;;;;;6187079;23;20131;-80
2024/01/11 18:09:37;;;;;;;8.10;4.85;;;13.60;74.80;;;;;;6213812;23;20309;-80
2024/01/11 18:12:02;;;;;;;7.68;4.40;;;13.60;74.80;;;;;;6186980;23;20005;-81
2024/01/11 18:14:28;;;;;;;9.05;5.00;;;13.60;74.80;;;;;;6187284;23;20458;-81
2024/01/11 18:16:53;;;;;;;7.55;4.50;;;13.60;74.90;;;;;;6187255;23;19997;-80
2024/01/11 18:19:19;;;;;;;9.55;4.78;;;13.60;74.80;;;;;;6187431;23;20040;-81
2024/01/11 18:21:44;;;;;;;8.07;4.25;;;13.60;74.80;;;;;;6214188;23;20093;-81
2024/01/11 18:24:11;;;;;;;8.23;4.55;;;13.60;74.90;;;;;;6187708;23;20004;-81
2024/01/11 18:26:37;;;;;;;8.50;5.00;;;13.60;74.80;;;;;;6215718;23;20093;-81
2024/01/11 18:29:03;;;;;;;8.00;4.65;;;13.60;74.90;;;;;;6189138;23;20040;-80
2024/01/11 18:31:28;;;;;;;8.02;4.40;;;13.60;74.90;;;;;;6189397;23;20011;-81
2024/01/11 18:33:55;;;;;;;8.55;4.55;;;13.60;74.90;;;;;;6189214;23;20004;-81
2024/01/11 18:36:20;;;;;;;9.23;4.80;;;13.60;74.90;;;;;;6189068;23;20005;-81
2024/01/11 18:38:46;;;;;;;7.30;4.47;;;13.60;74.90;;;;;;6215749;23;20012;-80
2024/01/11 18:41:12;;;;;;;8.40;4.40;;;13.60;74.90;;;;;;6189311;23;20007;-81
2024/01/11 18:43:37;;;;;;;8.57;4.85;;;13.60;74.90;;;;;;6189206;23;20339;-81
2024/01/11 18:46:03;;;;;;;7.80;4.38;;;13.60;74.80;;;;;;6189055;23;20007;-81
2024/01/11 18:48:28;;;;;;;7.90;4.57;;;13.60;74.80;;;;;;6189424;23;20008;-81
2024/01/11 18:50:55;;;;;;;7.30;4.63;;;13.60;74.80;;;;;;6189100;23;20023;-80
2024/01/11 18:53:21;;;;;;;9.07;4.70;;;13.60;74.90;;;;;;6189727;23;20008;-80
2024/01/11 18:55:46;;;;;;;7.82;4.57;;;13.60;74.80;;;;;;6189395;23;20088;-80
2024/01/11 18:58:14;;;;;;;7.47;4.57;;;13.60;74.80;;;;;;6188994;23;20009;-80
2024/01/11 19:00:40;;;;;;;7.78;4.43;;;13.60;74.90;;;;;;6189703;23;20009;-80
2024/01/11 19:03:05;;;;;;;9.05;4.47;;;13.60;74.80;;;;;;6189070;23;20012;-79
2024/01/11 19:05:32;;;;;;;7.35;4.50;;;13.60;74.80;;;;;;6189142;23;20059;-80
2024/01/11 19:07:59;;;;;;;7.28;4.57;;;13.60;74.80;;;;;;6188478;23;20013;-79
2024/01/11 19:10:24;;;;;;;8.00;4.80;;;13.50;74.80;;;;;;6188997;23;20348;-80
2024/01/11 19:12:49;;;;;;;6.88;4.13;;;13.60;74.90;;;;;;6189391;23;20000;-81
2024/01/11 19:15:15;;;;;;;7.13;4.43;;;13.60;74.80;;;;;;6214510;23;20005;-81
2024/01/11 19:17:41;;;;;;;7.85;4.55;;;13.60;74.90;;;;;;6215932;23;20046;-80
2024/01/11 19:20:07;;;;;;;7.50;4.60;;;13.60;74.90;;;;;;6189591;23;20096;-81
2024/01/11 19:22:32;;;;;;;7.13;4.40;;;13.60;74.90;;;;;;6189423;23;20321;-81
2024/01/11 19:24:58;;;;;;;7.72;4.90;;;13.60;74.90;;;;;;6189441;23;20005;-83
2024/01/11 19:27:24;;;;;;;6.82;4.40;;;13.60;74.90;;;;;;6189162;23;20012;-80
2024/01/11 19:29:51;;;;;;;7.60;4.38;;;13.60;74.90;;;;;;6189433;23;20484;-81
2024/01/11 19:32:16;;;;;;;7.03;4.13;;;13.60;74.80;;;;;;6188789;23;20544;-80
2024/01/11 19:34:42;;;;;;;7.38;4.57;;;13.60;74.90;;;;;;6215095;23;20004;-80
2024/01/11 19:37:07;;;;;;;7.53;4.40;;;13.60;74.90;;;;;;6188240;23;20530;-80
2024/01/11 19:39:33;;;;;;;7.72;4.45;;;13.60;74.90;;;;;;6215405;23;20005;-80
2024/01/11 19:41:59;;;;;;;8.35;4.68;;;13.60;74.90;;;;;;6188813;23;20055;-81
2024/01/11 19:44:27;;;;;;;6.78;4.15;;;13.60;75.00;;;;;;6215482;23;20344;-81
2024/01/11 19:46:53;;;;;;;6.75;4.00;;;13.60;75.00;;;;;;6188247;23;20012;-81
2024/01/11 19:49:18;;;;;;;6.65;4.35;;;13.60;75.00;;;;;;6188543;23;20004;-81
2024/01/11 19:51:44;;;;;;;7.38;4.30;;;13.60;74.90;;;;;;6188613;23;20001;-81
2024/01/11 19:54:09;;;;;;;6.93;4.38;;;13.70;74.90;;;;;;6188721;23;20001;-80
2024/01/11 19:56:35;;;;;;;7.13;4.20;;;13.60;74.90;;;;;;6215445;23;20063;-80
2024/01/11 19:59:00;;;;;;;7.60;4.18;;;13.70;75.00;;;;;;6188777;23;20004;-81
2024/01/11 20:01:26;;;;;;;7.53;4.18;;;13.60;75.00;;;;;;6188233;23;20008;-81
2024/01/11 20:03:51;;;;;;;7.00;4.35;;;13.70;75.00;;;;;;6188858;23;20083;-81
2024/01/11 20:06:17;;;;;;;7.57;4.47;;;13.60;74.90;;;;;;6188701;23;20008;-81
2024/01/11 20:08:42;;;;;;;7.70;4.45;;;13.70;74.90;;;;;;6188769;23;20004;-81
2024/01/11 20:11:08;;;;;;;8.18;4.38;;;13.70;74.90;;;;;;6188969;23;20001;-82
2024/01/11 20:13:33;;;;;;;7.43;4.32;;;13.70;74.90;;;;;;6215690;23;20008;-80
2024/01/11 20:15:59;;;;;;;8.27;4.50;;;13.70;74.90;;;;;;6188401;23;20008;-81
2024/01/11 20:18:25;;;;;;;8.43;4.43;;;13.70;75.00;;;;;;6188869;23;20194;-81
2024/01/11 20:20:51;;;;;;;7.95;4.38;;;13.70;75.00;;;;;;6188445;23;20035;-80
2024/01/11 20:23:17;;;;;;;7.07;4.47;;;13.60;75.00;;;;;;6188533;23;20005;-82
2024/01/11 20:25:43;;;;;;;7.45;4.10;;;13.70;75.00;;;;;;6214667;23;20009;-79
2024/01/11 20:28:12;;;;;;;7.57;4.60;;;13.70;75.00;;;;;;6188069;23;20087;-81
2024/01/11 20:30:37;;;;;;;7.32;4.15;;;13.70;75.00;;;;;;6188118;23;20020;-81
2024/01/11 20:33:03;;;;;;;7.13;4.32;;;13.70;74.90;;;;;;6188118;23;20004;-81
2024/01/11 20:35:29;;;;;;;7.43;4.53;;;13.70;74.90;;;;;;6188052;23;20005;-80
2024/01/11 20:37:55;;;;;;;7.28;4.22;;;13.70;75.00;;;;;;6188040;23;20347;-81
2024/01/11 20:40:20;;;;;;;6.45;4.05;;;13.70;75.00;;;;;;6187794;23;20083;-80
2024/01/11 20:42:46;;;;;;;6.85;3.97;;;13.70;75.00;;;;;;6187872;23;20342;-80
2024/01/11 20:45:11;;;;;;;7.05;4.32;;;13.70;75.00;;;;;;6187957;23;20075;-81
2024/01/11 20:47:37;;;;;;;6.93;4.22;;;13.70;74.90;;;;;;6188000;23;20023;-81
2024/01/11 20:50:03;;;;;;;7.32;4.35;;;13.70;74.90;;;;;;6187795;23;20005;-80
2024/01/11 20:52:28;;;;;;;7.20;4.22;;;13.70;75.00;;;;;;6188131;23;20008;-80
2024/01/11 20:54:54;;;;;;;7.25;3.83;;;13.70;75.00;;;;;;6188416;23;20004;-81
2024/01/11 20:57:20;;;;;;;6.75;3.63;;;13.70;75.00;;;;;;6187784;23;20059;-80
2024/01/11 20:59:45;;;;;;;6.43;4.03;;;13.70;74.90;;;;;;6214988;23;20008;-81
2024/01/11 21:02:11;;;;;;;7.65;4.40;;;13.70;75.00;;;;;;6214602;23;20431;-80
2024/01/11 21:04:36;;;;;;;7.43;3.80;;;13.70;74.90;;;;;;6187808;23;20011;-81
2024/01/11 21:07:03;;;;;;;7.10;4.22;;;13.70;74.90;;;;;;6187837;23;20558;-80
2024/01/11 21:09:28;;;;;;;6.20;3.97;;;13.70;75.00;;;;;;6187725;23;20009;-82
2024/01/11 21:11:55;;;;;;;7.05;4.40;;;13.70;75.00;;;;;;6188052;23;20075;-81
2024/01/11 21:14:21;;;;;;;6.47;3.83;;;13.70;74.90;;;;;;6188065;23;20058;-80